Terminal Aerodrome Forecast
Issued by NWS

Home | Current Version | Previous Version | Text Only | Print | Product List | Glossary On
Versions: 1 2 3 4 5 6 7 8 9 10 11 12 13 14 15 16 17 18 19 20 21 22 23 24 25 26 27 28 29 30
000
FTUS42 KCAE 040722 AAA
TAFCUB
TAF AMD
KCUB 040722Z 0407/0506 22008KT P6SM VCSH SCT045 BKN200
      TEMPO 0408/0410 27012G24KT 3SM TSRA BKN025CB
     FM041000 24005KT P6SM VCSH SCT040 OVC200
     FM041500 27015G22KT P6SM VCSH SCT035 BKN250
     FM050000 25009KT P6SM SCT070 BKN250=

USA.gov is the U.S. government's official web portal to all federal, state and local government web resources and services.